Unity N — V7WI2 — position and weather

sailwx.info

Track history (hours):
 
Tides and Currents Weather Stations Pressure Air Temp Water Temp Dewpoint Dewpoint Depression Visibility Wind Speed Wind Dir Waves Ship Positions

Unity N

Last reported at 2016-Jul-18 16:32 UTC. Time now 2016-Jul-24 01:00 UTC.
Position N 31°16' E 121°54'.

Length 229 m; draft 7 m.

Type: Cargo ship. MMSI: 538006451.

Date/timePositionNaut miles runAvg speedWind from/ knotsBaromVisibWave heightAir tempDewpointWater temp
2016-Jul-18 16:32N 31°16' E 121°54'1010.0
2016-Jul-18 15:30N 31°19' E 121°43'6 6.8
2016-Jul-18 14:33N 31°22' E 121°36'8 7.7
2016-Jul-18 13:33N 31°26' E 121°29'7 7.3
2016-Jul-18 12:33N 31°31' E 121°22'1413.8
2016-Jul-18 11:33N 31°41' E 121°11'2612.9
2016-Jul-18 09:33N 31°59' E 120°50'1413.0
2016-Jul-18 08:31N 32°01' E 120°34'1313.6
2016-Jul-18 07:32N 31°58' E 120°18'1512.6
2016-Jul-18 06:21N 31°58' E 120°01'  
2016-Jul-11 02:16N 32°01' E 120°48'25 9.1
2016-Jul-10 23:34N 31°43' E 121°08'1110.9
2016-Jul-10 22:34N 31°36' E 121°18'1 0.9
2016-Jul-10 21:32N 31°36' E 121°19'0 0.1
2016-Jul-10 20:26N 31°36' E 121°19'0 0.1
2016-Jul-10 19:32N 31°36' E 121°19'0 0.1
2016-Jul-10 18:32N 31°36' E 121°19'0 0.0
2016-Jul-10 17:31N 31°36' E 121°19'0 0.0
2016-Jul-10 16:32N 31°36' E 121°19'0 0.0
2016-Jul-10 15:29N 31°36' E 121°19'0 0.0
2016-Jul-10 14:29N 31°36' E 121°19'0 0.1
2016-Jul-10 13:32N 31°36' E 121°19'0 0.0
2016-Jul-10 12:32N 31°36' E 121°19'3 3.3
2016-Jul-10 11:34N 31°33' E 121°20'1010.2
2016-Jul-10 10:33N 31°26' E 121°29'8 7.8
2016-Jul-10 09:33N 31°22' E 121°37'1110.4
2016-Jul-10 08:31N 31°17' E 121°48'  
Track history (hours):
 
Tides and Currents Weather Stations Pressure Air Temp Water Temp Dewpoint Dewpoint Depression Visibility Wind Speed Wind Dir Waves Ship Positions

Unity N

Last reported at 2016-Jul-18 16:32 UTC. Time now 2016-Jul-24 01:00 UTC.
Position N 31°16' E 121°54'.

Length 229 m; draft 7 m.

Type: Cargo ship. MMSI: 538006451.

Date/timePositionNaut miles runAvg speedWind from/ knotsBaromVisibWave heightAir tempDewpointWater temp
2016-Jul-18 16:32N 31°16' E 121°54'1010.0
2016-Jul-18 15:30N 31°19' E 121°43'6 6.8
2016-Jul-18 14:33N 31°22' E 121°36'8 7.7
2016-Jul-18 13:33N 31°26' E 121°29'7 7.3
2016-Jul-18 12:33N 31°31' E 121°22'1413.8
2016-Jul-18 11:33N 31°41' E 121°11'2612.9
2016-Jul-18 09:33N 31°59' E 120°50'1413.0
2016-Jul-18 08:31N 32°01' E 120°34'1313.6
2016-Jul-18 07:32N 31°58' E 120°18'1512.6
2016-Jul-18 06:21N 31°58' E 120°01'  
2016-Jul-11 02:16N 32°01' E 120°48'25 9.1
2016-Jul-10 23:34N 31°43' E 121°08'1110.9
2016-Jul-10 22:34N 31°36' E 121°18'1 0.9
2016-Jul-10 21:32N 31°36' E 121°19'0 0.1
2016-Jul-10 20:26N 31°36' E 121°19'0 0.1
2016-Jul-10 19:32N 31°36' E 121°19'0 0.1
2016-Jul-10 18:32N 31°36' E 121°19'0 0.0
2016-Jul-10 17:31N 31°36' E 121°19'0 0.0
2016-Jul-10 16:32N 31°36' E 121°19'0 0.0
2016-Jul-10 15:29N 31°36' E 121°19'0 0.0
2016-Jul-10 14:29N 31°36' E 121°19'0 0.1
2016-Jul-10 13:32N 31°36' E 121°19'0 0.0
2016-Jul-10 12:32N 31°36' E 121°19'3 3.3
2016-Jul-10 11:34N 31°33' E 121°20'1010.2
2016-Jul-10 10:33N 31°26' E 121°29'8 7.8
2016-Jul-10 09:33N 31°22' E 121°37'1110.4
2016-Jul-10 08:31N 31°17' E 121°48'  

Dump ship's entire track history